sensor_id;sensor_type;location;lat;lon;timestamp;P1;durP1;ratioP1;P2;durP2;ratioP2
43803;SDS011;29430;52.924;-2.388;2023-04-28T00:04:25;15.77;;;11.35;;
43803;SDS011;29430;52.924;-2.388;2023-04-28T00:09:17;14.50;;;10.82;;
43803;SDS011;29430;52.924;-2.388;2023-04-28T00:14:09;16.38;;;11.77;;
43803;SDS011;29430;52.924;-2.388;2023-04-28T00:19:01;14.60;;;10.75;;
43803;SDS011;29430;52.924;-2.388;2023-04-28T00:23:53;18.05;;;12.23;;
43803;SDS011;29430;52.924;-2.388;2023-04-28T00:28:44;17.63;;;12.30;;
43803;SDS011;29430;52.924;-2.388;2023-04-28T00:33:37;18.58;;;13.13;;
43803;SDS011;29430;52.924;-2.388;2023-04-28T00:38:31;15.48;;;11.63;;
43803;SDS011;29430;52.924;-2.388;2023-04-28T00:43:23;17.23;;;12.13;;
43803;SDS011;29430;52.924;-2.388;2023-04-28T00:48:15;12.88;;;10.23;;
43803;SDS011;29430;52.924;-2.388;2023-04-28T00:53:07;14.00;;;9.85;;
43803;SDS011;29430;52.924;-2.388;2023-04-28T00:57:59;13.90;;;9.43;;
43803;SDS011;29430;52.924;-2.388;2023-04-28T01:02:51;11.75;;;8.95;;
43803;SDS011;29430;52.924;-2.388;2023-04-28T01:07:44;13.18;;;9.82;;
43803;SDS011;29430;52.924;-2.388;2023-04-28T01:12:35;13.02;;;9.90;;
43803;SDS011;29430;52.924;-2.388;2023-04-28T01:17:27;13.90;;;9.82;;
43803;SDS011;29430;52.924;-2.388;2023-04-28T01:22:19;16.00;;;10.52;;
43803;SDS011;29430;52.924;-2.388;2023-04-28T01:27:11;17.10;;;11.38;;
43803;SDS011;29430;52.924;-2.388;2023-04-28T01:32:02;17.65;;;11.55;;
43803;SDS011;29430;52.924;-2.388;2023-04-28T01:36:54;15.73;;;10.40;;
43803;SDS011;29430;52.924;-2.388;2023-04-28T01:41:46;15.02;;;10.80;;
43803;SDS011;29430;52.924;-2.388;2023-04-28T01:46:38;17.88;;;11.50;;
43803;SDS011;29430;52.924;-2.388;2023-04-28T01:51:30;15.68;;;11.23;;
43803;SDS011;29430;52.924;-2.388;2023-04-28T01:56:22;14.85;;;10.88;;
43803;SDS011;29430;52.924;-2.388;2023-04-28T02:01:14;14.07;;;10.25;;
43803;SDS011;29430;52.924;-2.388;2023-04-28T02:06:06;14.25;;;9.73;;
43803;SDS011;29430;52.924;-2.388;2023-04-28T02:10:58;14.40;;;10.57;;
43803;SDS011;29430;52.924;-2.388;2023-04-28T02:15:51;12.52;;;9.10;;
43803;SDS011;29430;52.924;-2.388;2023-04-28T02:20:43;13.60;;;9.57;;
43803;SDS011;29430;52.924;-2.388;2023-04-28T02:25:35;13.73;;;10.15;;
43803;SDS011;29430;52.924;-2.388;2023-04-28T02:30:26;11.80;;;7.93;;
43803;SDS011;29430;52.924;-2.388;2023-04-28T02:35:18;11.63;;;7.80;;
43803;SDS011;29430;52.924;-2.388;2023-04-28T02:40:09;9.82;;;6.95;;
43803;SDS011;29430;52.924;-2.388;2023-04-28T02:45:01;11.10;;;7.50;;
43803;SDS011;29430;52.924;-2.388;2023-04-28T02:49:53;10.27;;;6.90;;
43803;SDS011;29430;52.924;-2.388;2023-04-28T02:54:44;11.15;;;7.80;;
43803;SDS011;29430;52.924;-2.388;2023-04-28T02:59:39;12.60;;;7.80;;
43803;SDS011;29430;52.924;-2.388;2023-04-28T03:04:31;10.63;;;6.78;;
43803;SDS011;29430;52.924;-2.388;2023-04-28T03:09:22;11.43;;;7.40;;
43803;SDS011;29430;52.924;-2.388;2023-04-28T03:14:14;11.27;;;7.50;;
43803;SDS011;29430;52.924;-2.388;2023-04-28T03:19:06;12.18;;;7.03;;
43803;SDS011;29430;52.924;-2.388;2023-04-28T03:23:58;14.15;;;7.25;;
43803;SDS011;29430;52.924;-2.388;2023-04-28T03:28:49;10.43;;;7.03;;
43803;SDS011;29430;52.924;-2.388;2023-04-28T03:33:41;11.38;;;8.18;;
43803;SDS011;29430;52.924;-2.388;2023-04-28T03:38:35;11.75;;;7.35;;
43803;SDS011;29430;52.924;-2.388;2023-04-28T03:43:27;11.95;;;8.10;;
43803;SDS011;29430;52.924;-2.388;2023-04-28T03:48:19;12.10;;;8.35;;
43803;SDS011;29430;52.924;-2.388;2023-04-28T03:53:11;10.32;;;6.78;;
43803;SDS011;29430;52.924;-2.388;2023-04-28T03:58:02;10.43;;;7.35;;
43803;SDS011;29430;52.924;-2.388;2023-04-28T04:02:54;12.30;;;8.27;;
43803;SDS011;29430;52.924;-2.388;2023-04-28T04:07:46;10.75;;;7.45;;
43803;SDS011;29430;52.924;-2.388;2023-04-28T04:12:38;11.15;;;7.03;;
43803;SDS011;29430;52.924;-2.388;2023-04-28T04:17:29;11.02;;;7.85;;
43803;SDS011;29430;52.924;-2.388;2023-04-28T04:22:21;11.23;;;8.02;;
43803;SDS011;29430;52.924;-2.388;2023-04-28T04:27:13;11.52;;;8.20;;
43803;SDS011;29430;52.924;-2.388;2023-04-28T04:32:05;10.48;;;7.20;;
43803;SDS011;29430;52.924;-2.388;2023-04-28T04:36:56;13.40;;;8.15;;
43803;SDS011;29430;52.924;-2.388;2023-04-28T04:41:48;14.38;;;8.45;;
43803;SDS011;29430;52.924;-2.388;2023-04-28T04:46:40;14.00;;;8.75;;
43803;SDS011;29430;52.924;-2.388;2023-04-28T04:51:32;14.10;;;9.02;;
43803;SDS011;29430;52.924;-2.388;2023-04-28T04:56:23;11.88;;;7.97;;
43803;SDS011;29430;52.924;-2.388;2023-04-28T05:01:15;15.82;;;10.27;;
43803;SDS011;29430;52.924;-2.388;2023-04-28T05:06:06;18.25;;;9.88;;
43803;SDS011;29430;52.924;-2.388;2023-04-28T05:10:58;14.15;;;8.85;;
43803;SDS011;29430;52.924;-2.388;2023-04-28T05:15:50;14.60;;;9.18;;
43803;SDS011;29430;52.924;-2.388;2023-04-28T05:20:41;15.73;;;9.43;;
43803;SDS011;29430;52.924;-2.388;2023-04-28T05:25:33;13.35;;;9.07;;
43803;SDS011;29430;52.924;-2.388;2023-04-28T05:30:24;16.45;;;10.75;;
43803;SDS011;29430;52.924;-2.388;2023-04-28T05:35:16;14.68;;;8.80;;
43803;SDS011;29430;52.924;-2.388;2023-04-28T05:40:08;14.32;;;9.18;;
43803;SDS011;29430;52.924;-2.388;2023-04-28T05:45:00;15.57;;;9.05;;
43803;SDS011;29430;52.924;-2.388;2023-04-28T05:49:52;16.35;;;9.40;;
43803;SDS011;29430;52.924;-2.388;2023-04-28T05:54:44;15.65;;;9.30;;
43803;SDS011;29430;52.924;-2.388;2023-04-28T05:59:36;17.55;;;10.38;;
43803;SDS011;29430;52.924;-2.388;2023-04-28T06:04:27;16.15;;;9.48;;
43803;SDS011;29430;52.924;-2.388;2023-04-28T06:09:19;15.35;;;9.10;;
43803;SDS011;29430;52.924;-2.388;2023-04-28T06:14:11;14.05;;;8.65;;
43803;SDS011;29430;52.924;-2.388;2023-04-28T06:19:03;12.23;;;7.95;;
43803;SDS011;29430;52.924;-2.388;2023-04-28T06:23:54;16.67;;;9.52;;
43803;SDS011;29430;52.924;-2.388;2023-04-28T06:28:46;14.75;;;8.60;;
43803;SDS011;29430;52.924;-2.388;2023-04-28T06:33:38;14.63;;;9.20;;
43803;SDS011;29430;52.924;-2.388;2023-04-28T06:38:29;13.93;;;8.65;;
43803;SDS011;29430;52.924;-2.388;2023-04-28T06:43:21;15.02;;;9.27;;
43803;SDS011;29430;52.924;-2.388;2023-04-28T06:48:13;14.18;;;8.80;;
43803;SDS011;29430;52.924;-2.388;2023-04-28T06:53:04;14.38;;;9.70;;
43803;SDS011;29430;52.924;-2.388;2023-04-28T06:57:56;16.42;;;10.20;;
43803;SDS011;29430;52.924;-2.388;2023-04-28T07:02:48;20.92;;;10.70;;
43803;SDS011;29430;52.924;-2.388;2023-04-28T07:07:40;17.42;;;10.20;;
43803;SDS011;29430;52.924;-2.388;2023-04-28T07:12:32;19.92;;;10.40;;
43803;SDS011;29430;52.924;-2.388;2023-04-28T07:17:23;23.15;;;10.60;;
43803;SDS011;29430;52.924;-2.388;2023-04-28T07:22:15;22.10;;;11.63;;
43803;SDS011;29430;52.924;-2.388;2023-04-28T07:27:07;20.02;;;12.05;;
43803;SDS011;29430;52.924;-2.388;2023-04-28T07:32:02;18.60;;;10.70;;
43803;SDS011;29430;52.924;-2.388;2023-04-28T07:36:59;17.75;;;10.30;;
43803;SDS011;29430;52.924;-2.388;2023-04-28T07:41:51;19.10;;;11.10;;
43803;SDS011;29430;52.924;-2.388;2023-04-28T07:46:43;18.38;;;11.02;;
43803;SDS011;29430;52.924;-2.388;2023-04-28T07:51:35;19.20;;;11.25;;
43803;SDS011;29430;52.924;-2.388;2023-04-28T07:56:26;17.67;;;10.52;;
43803;SDS011;29430;52.924;-2.388;2023-04-28T08:01:18;14.77;;;10.23;;
43803;SDS011;29430;52.924;-2.388;2023-04-28T08:06:10;19.15;;;10.90;;
43803;SDS011;29430;52.924;-2.388;2023-04-28T08:11:01;19.05;;;11.65;;
43803;SDS011;29430;52.924;-2.388;2023-04-28T08:15:53;18.90;;;12.55;;
43803;SDS011;29430;52.924;-2.388;2023-04-28T08:20:50;21.13;;;12.80;;
43803;SDS011;29430;52.924;-2.388;2023-04-28T08:25:42;19.77;;;11.63;;
43803;SDS011;29430;52.924;-2.388;2023-04-28T08:30:33;21.90;;;14.30;;
43803;SDS011;29430;52.924;-2.388;2023-04-28T08:35:25;24.33;;;14.05;;
43803;SDS011;29430;52.924;-2.388;2023-04-28T08:40:17;25.08;;;15.60;;
43803;SDS011;29430;52.924;-2.388;2023-04-28T08:45:11;27.10;;;15.68;;
43803;SDS011;29430;52.924;-2.388;2023-04-28T08:50:05;29.77;;;16.40;;
43803;SDS011;29430;52.924;-2.388;2023-04-28T08:54:59;28.25;;;16.92;;
43803;SDS011;29430;52.924;-2.388;2023-04-28T08:59:51;29.00;;;17.73;;
43803;SDS011;29430;52.924;-2.388;2023-04-28T09:04:43;28.73;;;16.05;;
43803;SDS011;29430;52.924;-2.388;2023-04-28T09:09:37;29.45;;;18.60;;
43803;SDS011;29430;52.924;-2.388;2023-04-28T09:14:31;25.60;;;16.58;;
43803;SDS011;29430;52.924;-2.388;2023-04-28T09:19:31;28.42;;;17.45;;
43803;SDS011;29430;52.924;-2.388;2023-04-28T09:24:25;27.75;;;18.20;;
43803;SDS011;29430;52.924;-2.388;2023-04-28T09:29:19;26.30;;;15.75;;
43803;SDS011;29430;52.924;-2.388;2023-04-28T09:34:11;27.63;;;17.45;;
43803;SDS011;29430;52.924;-2.388;2023-04-28T09:39:06;27.35;;;16.90;;
43803;SDS011;29430;52.924;-2.388;2023-04-28T09:44:08;23.20;;;14.93;;
43803;SDS011;29430;52.924;-2.388;2023-04-28T09:49:00;27.60;;;16.58;;
43803;SDS011;29430;52.924;-2.388;2023-04-28T09:53:53;26.88;;;17.70;;
43803;SDS011;29430;52.924;-2.388;2023-04-28T09:58:49;27.55;;;17.42;;
43803;SDS011;29430;52.924;-2.388;2023-04-28T10:03:43;29.95;;;19.35;;
43803;SDS011;29430;52.924;-2.388;2023-04-28T10:08:37;36.13;;;23.27;;
43803;SDS011;29430;52.924;-2.388;2023-04-28T10:13:30;35.83;;;24.23;;
43803;SDS011;29430;52.924;-2.388;2023-04-28T10:18:22;30.40;;;21.52;;
43803;SDS011;29430;52.924;-2.388;2023-04-28T10:28:15;25.75;;;18.15;;
43803;SDS011;29430;52.924;-2.388;2023-04-28T10:38:09;25.08;;;16.75;;
43803;SDS011;29430;52.924;-2.388;2023-04-28T10:43:06;23.35;;;15.27;;
43803;SDS011;29430;52.924;-2.388;2023-04-28T10:47:59;23.90;;;15.90;;
43803;SDS011;29430;52.924;-2.388;2023-04-28T10:52:54;25.65;;;15.23;;
43803;SDS011;29430;52.924;-2.388;2023-04-28T10:57:46;24.05;;;16.83;;
43803;SDS011;29430;52.924;-2.388;2023-04-28T11:02:38;20.90;;;14.43;;
43803;SDS011;29430;52.924;-2.388;2023-04-28T11:07:34;21.77;;;13.90;;
43803;SDS011;29430;52.924;-2.388;2023-04-28T11:12:26;21.88;;;14.57;;
43803;SDS011;29430;52.924;-2.388;2023-04-28T11:17:18;23.92;;;15.73;;
43803;SDS011;29430;52.924;-2.388;2023-04-28T11:22:30;24.55;;;16.17;;
43803;SDS011;29430;52.924;-2.388;2023-04-28T11:27:26;18.58;;;12.85;;
43803;SDS011;29430;52.924;-2.388;2023-04-28T11:32:29;16.77;;;11.55;;
43803;SDS011;29430;52.924;-2.388;2023-04-28T11:37:22;15.65;;;10.30;;
43803;SDS011;29430;52.924;-2.388;2023-04-28T11:42:13;15.23;;;10.63;;
43803;SDS011;29430;52.924;-2.388;2023-04-28T11:47:05;14.93;;;10.20;;
43803;SDS011;29430;52.924;-2.388;2023-04-28T11:52:04;14.48;;;10.70;;
43803;SDS011;29430;52.924;-2.388;2023-04-28T11:56:57;14.40;;;11.15;;
43803;SDS011;29430;52.924;-2.388;2023-04-28T12:01:50;17.15;;;12.65;;
43803;SDS011;29430;52.924;-2.388;2023-04-28T12:06:43;15.77;;;11.68;;
43803;SDS011;29430;52.924;-2.388;2023-04-28T12:11:34;15.95;;;11.65;;
43803;SDS011;29430;52.924;-2.388;2023-04-28T12:16:36;15.38;;;11.38;;
43803;SDS011;29430;52.924;-2.388;2023-04-28T12:21:29;14.77;;;9.75;;
43803;SDS011;29430;52.924;-2.388;2023-04-28T12:26:24;14.50;;;10.65;;
43803;SDS011;29430;52.924;-2.388;2023-04-28T12:31:16;16.55;;;11.55;;
43803;SDS011;29430;52.924;-2.388;2023-04-28T12:36:07;15.27;;;11.15;;
43803;SDS011;29430;52.924;-2.388;2023-04-28T12:40:59;16.20;;;12.15;;
43803;SDS011;29430;52.924;-2.388;2023-04-28T12:45:51;12.85;;;10.27;;
43803;SDS011;29430;52.924;-2.388;2023-04-28T12:50:44;13.75;;;10.35;;
43803;SDS011;29430;52.924;-2.388;2023-04-28T12:55:36;13.30;;;9.80;;
43803;SDS011;29430;52.924;-2.388;2023-04-28T13:00:31;12.32;;;10.30;;
43803;SDS011;29430;52.924;-2.388;2023-04-28T13:05:22;9.95;;;7.47;;
43803;SDS011;29430;52.924;-2.388;2023-04-28T13:10:14;12.40;;;8.60;;
43803;SDS011;29430;52.924;-2.388;2023-04-28T13:15:06;10.23;;;8.05;;
43803;SDS011;29430;52.924;-2.388;2023-04-28T13:19:58;9.23;;;7.13;;
43803;SDS011;29430;52.924;-2.388;2023-04-28T13:24:51;8.85;;;6.90;;
43803;SDS011;29430;52.924;-2.388;2023-04-28T13:29:43;9.15;;;7.35;;
43803;SDS011;29430;52.924;-2.388;2023-04-28T13:34:34;9.68;;;6.97;;
43803;SDS011;29430;52.924;-2.388;2023-04-28T13:39:28;10.07;;;7.38;;
43803;SDS011;29430;52.924;-2.388;2023-04-28T13:44:19;8.48;;;6.25;;
43803;SDS011;29430;52.924;-2.388;2023-04-28T13:49:11;8.32;;;6.65;;
43803;SDS011;29430;52.924;-2.388;2023-04-28T13:54:03;11.10;;;8.18;;
43803;SDS011;29430;52.924;-2.388;2023-04-28T13:58:58;9.80;;;8.27;;
43803;SDS011;29430;52.924;-2.388;2023-04-28T14:03:50;8.88;;;7.50;;
43803;SDS011;29430;52.924;-2.388;2023-04-28T14:08:42;12.38;;;10.10;;
43803;SDS011;29430;52.924;-2.388;2023-04-28T14:13:33;13.40;;;11.90;;
43803;SDS011;29430;52.924;-2.388;2023-04-28T14:18:26;13.60;;;12.23;;
43803;SDS011;29430;52.924;-2.388;2023-04-28T14:23:19;12.95;;;11.65;;
43803;SDS011;29430;52.924;-2.388;2023-04-28T14:28:11;12.50;;;11.18;;
43803;SDS011;29430;52.924;-2.388;2023-04-28T14:33:03;12.68;;;11.40;;
43803;SDS011;29430;52.924;-2.388;2023-04-28T14:37:54;15.43;;;13.32;;
43803;SDS011;29430;52.924;-2.388;2023-04-28T14:42:47;18.52;;;16.70;;
43803;SDS011;29430;52.924;-2.388;2023-04-28T14:47:39;18.33;;;16.45;;
43803;SDS011;29430;52.924;-2.388;2023-04-28T14:52:31;20.67;;;18.52;;
43803;SDS011;29430;52.924;-2.388;2023-04-28T14:57:24;15.68;;;14.07;;
43803;SDS011;29430;52.924;-2.388;2023-04-28T15:02:16;19.02;;;17.17;;
43803;SDS011;29430;52.924;-2.388;2023-04-28T15:07:09;15.20;;;13.80;;
43803;SDS011;29430;52.924;-2.388;2023-04-28T15:12:01;12.75;;;11.55;;
43803;SDS011;29430;52.924;-2.388;2023-04-28T15:16:53;10.77;;;9.77;;
43803;SDS011;29430;52.924;-2.388;2023-04-28T15:21:45;9.00;;;8.07;;
43803;SDS011;29430;52.924;-2.388;2023-04-28T15:26:37;9.77;;;8.88;;
43803;SDS011;29430;52.924;-2.388;2023-04-28T15:31:28;10.70;;;9.43;;
43803;SDS011;29430;52.924;-2.388;2023-04-28T15:36:20;9.50;;;8.60;;
43803;SDS011;29430;52.924;-2.388;2023-04-28T15:41:13;9.30;;;8.02;;
43803;SDS011;29430;52.924;-2.388;2023-04-28T15:46:05;6.28;;;5.55;;
43803;SDS011;29430;52.924;-2.388;2023-04-28T15:51:01;7.70;;;6.55;;
43803;SDS011;29430;52.924;-2.388;2023-04-28T15:55:53;6.93;;;6.20;;
43803;SDS011;29430;52.924;-2.388;2023-04-28T16:00:44;7.95;;;7.15;;
43803;SDS011;29430;52.924;-2.388;2023-04-28T16:05:36;7.60;;;6.90;;
43803;SDS011;29430;52.924;-2.388;2023-04-28T16:10:29;7.13;;;6.43;;
43803;SDS011;29430;52.924;-2.388;2023-04-28T16:15:21;7.65;;;6.25;;
43803;SDS011;29430;52.924;-2.388;2023-04-28T16:20:13;6.20;;;5.50;;
43803;SDS011;29430;52.924;-2.388;2023-04-28T16:25:05;5.47;;;4.40;;
43803;SDS011;29430;52.924;-2.388;2023-04-28T16:29:57;5.40;;;4.65;;
43803;SDS011;29430;52.924;-2.388;2023-04-28T16:34:49;5.45;;;4.68;;
43803;SDS011;29430;52.924;-2.388;2023-04-28T16:39:42;4.38;;;3.80;;
43803;SDS011;29430;52.924;-2.388;2023-04-28T16:44:33;5.80;;;4.55;;
43803;SDS011;29430;52.924;-2.388;2023-04-28T16:49:26;4.13;;;3.38;;
43803;SDS011;29430;52.924;-2.388;2023-04-28T16:54:17;4.85;;;3.58;;
43803;SDS011;29430;52.924;-2.388;2023-04-28T16:59:09;4.85;;;4.18;;
43803;SDS011;29430;52.924;-2.388;2023-04-28T17:04:01;4.88;;;2.78;;
43803;SDS011;29430;52.924;-2.388;2023-04-28T17:08:57;2.70;;;1.48;;
43803;SDS011;29430;52.924;-2.388;2023-04-28T17:13:49;3.65;;;1.05;;
43803;SDS011;29430;52.924;-2.388;2023-04-28T17:18:41;3.33;;;1.70;;
43803;SDS011;29430;52.924;-2.388;2023-04-28T17:23:33;3.10;;;1.80;;
43803;SDS011;29430;52.924;-2.388;2023-04-28T17:28:25;2.70;;;1.30;;
43803;SDS011;29430;52.924;-2.388;2023-04-28T17:33:18;2.67;;;1.48;;
43803;SDS011;29430;52.924;-2.388;2023-04-28T17:38:09;2.97;;;1.20;;
43803;SDS011;29430;52.924;-2.388;2023-04-28T17:43:01;3.25;;;2.00;;
43803;SDS011;29430;52.924;-2.388;2023-04-28T17:47:54;4.32;;;2.42;;
43803;SDS011;29430;52.924;-2.388;2023-04-28T17:52:50;3.95;;;2.85;;
43803;SDS011;29430;52.924;-2.388;2023-04-28T17:57:42;3.70;;;1.75;;
43803;SDS011;29430;52.924;-2.388;2023-04-28T18:02:34;3.38;;;1.98;;
43803;SDS011;29430;52.924;-2.388;2023-04-28T18:07:26;3.53;;;2.17;;
43803;SDS011;29430;52.924;-2.388;2023-04-28T18:12:18;3.22;;;1.75;;
43803;SDS011;29430;52.924;-2.388;2023-04-28T18:17:10;3.28;;;1.55;;
43803;SDS011;29430;52.924;-2.388;2023-04-28T18:22:01;3.63;;;1.73;;
43803;SDS011;29430;52.924;-2.388;2023-04-28T18:26:53;2.53;;;1.15;;
43803;SDS011;29430;52.924;-2.388;2023-04-28T18:31:45;3.60;;;1.42;;
43803;SDS011;29430;52.924;-2.388;2023-04-28T18:36:37;3.70;;;1.92;;
43803;SDS011;29430;52.924;-2.388;2023-04-28T18:41:28;5.07;;;2.75;;
43803;SDS011;29430;52.924;-2.388;2023-04-28T18:46:20;3.97;;;2.08;;
43803;SDS011;29430;52.924;-2.388;2023-04-28T18:51:12;3.53;;;1.75;;
43803;SDS011;29430;52.924;-2.388;2023-04-28T18:56:04;3.40;;;1.63;;
43803;SDS011;29430;52.924;-2.388;2023-04-28T19:00:55;2.75;;;1.38;;
43803;SDS011;29430;52.924;-2.388;2023-04-28T19:05:47;2.95;;;1.17;;
43803;SDS011;29430;52.924;-2.388;2023-04-28T19:10:39;3.58;;;1.75;;
43803;SDS011;29430;52.924;-2.388;2023-04-28T19:15:31;2.75;;;1.30;;
43803;SDS011;29430;52.924;-2.388;2023-04-28T19:20:26;17.23;;;5.72;;
43803;SDS011;29430;52.924;-2.388;2023-04-28T19:25:17;3.03;;;1.48;;
43803;SDS011;29430;52.924;-2.388;2023-04-28T19:30:13;3.53;;;1.45;;
43803;SDS011;29430;52.924;-2.388;2023-04-28T19:35:05;9.05;;;4.43;;
43803;SDS011;29430;52.924;-2.388;2023-04-28T19:39:57;6.68;;;1.80;;
43803;SDS011;29430;52.924;-2.388;2023-04-28T19:44:52;3.65;;;2.03;;
43803;SDS011;29430;52.924;-2.388;2023-04-28T19:49:45;4.43;;;3.38;;
43803;SDS011;29430;52.924;-2.388;2023-04-28T19:54:37;4.03;;;2.75;;
43803;SDS011;29430;52.924;-2.388;2023-04-28T19:59:29;5.55;;;4.95;;
43803;SDS011;29430;52.924;-2.388;2023-04-28T20:04:20;5.72;;;3.90;;
43803;SDS011;29430;52.924;-2.388;2023-04-28T20:09:12;3.55;;;1.83;;
43803;SDS011;29430;52.924;-2.388;2023-04-28T20:14:04;3.22;;;1.90;;
43803;SDS011;29430;52.924;-2.388;2023-04-28T20:18:56;2.78;;;1.58;;
43803;SDS011;29430;52.924;-2.388;2023-04-28T20:23:47;3.00;;;1.55;;
43803;SDS011;29430;52.924;-2.388;2023-04-28T20:28:39;4.07;;;2.50;;
43803;SDS011;29430;52.924;-2.388;2023-04-28T20:33:31;2.63;;;1.25;;
43803;SDS011;29430;52.924;-2.388;2023-04-28T20:38:23;3.90;;;1.40;;
43803;SDS011;29430;52.924;-2.388;2023-04-28T20:43:15;4.28;;;1.90;;
43803;SDS011;29430;52.924;-2.388;2023-04-28T20:48:07;5.05;;;2.78;;
43803;SDS011;29430;52.924;-2.388;2023-04-28T20:52:59;4.25;;;2.40;;
43803;SDS011;29430;52.924;-2.388;2023-04-28T20:57:51;4.55;;;2.63;;
43803;SDS011;29430;52.924;-2.388;2023-04-28T21:02:43;5.32;;;3.10;;
43803;SDS011;29430;52.924;-2.388;2023-04-28T21:07:35;4.47;;;2.95;;
43803;SDS011;29430;52.924;-2.388;2023-04-28T21:12:27;7.43;;;4.03;;
43803;SDS011;29430;52.924;-2.388;2023-04-28T21:17:19;6.38;;;4.40;;
43803;SDS011;29430;52.924;-2.388;2023-04-28T21:22:10;7.20;;;4.25;;
43803;SDS011;29430;52.924;-2.388;2023-04-28T21:27:02;6.88;;;4.05;;
43803;SDS011;29430;52.924;-2.388;2023-04-28T21:31:55;7.35;;;4.53;;
43803;SDS011;29430;52.924;-2.388;2023-04-28T21:36:47;4.97;;;3.55;;
43803;SDS011;29430;52.924;-2.388;2023-04-28T21:41:38;6.82;;;4.38;;
43803;SDS011;29430;52.924;-2.388;2023-04-28T21:46:30;10.93;;;7.18;;
43803;SDS011;29430;52.924;-2.388;2023-04-28T21:51:21;7.35;;;5.07;;
43803;SDS011;29430;52.924;-2.388;2023-04-28T21:56:13;6.65;;;4.82;;
43803;SDS011;29430;52.924;-2.388;2023-04-28T22:01:06;6.90;;;5.00;;
43803;SDS011;29430;52.924;-2.388;2023-04-28T22:05:58;6.95;;;4.72;;
43803;SDS011;29430;52.924;-2.388;2023-04-28T22:10:50;7.47;;;5.13;;
43803;SDS011;29430;52.924;-2.388;2023-04-28T22:15:42;8.63;;;5.78;;
43803;SDS011;29430;52.924;-2.388;2023-04-28T22:20:33;8.98;;;6.07;;
43803;SDS011;29430;52.924;-2.388;2023-04-28T22:25:26;7.00;;;4.82;;
43803;SDS011;29430;52.924;-2.388;2023-04-28T22:30:17;5.93;;;4.82;;
43803;SDS011;29430;52.924;-2.388;2023-04-28T22:35:09;7.93;;;5.68;;
43803;SDS011;29430;52.924;-2.388;2023-04-28T22:40:03;9.40;;;6.35;;
43803;SDS011;29430;52.924;-2.388;2023-04-28T22:44:56;8.95;;;6.68;;
43803;SDS011;29430;52.924;-2.388;2023-04-28T22:49:48;8.68;;;6.70;;
43803;SDS011;29430;52.924;-2.388;2023-04-28T22:54:40;8.55;;;6.03;;
43803;SDS011;29430;52.924;-2.388;2023-04-28T22:59:31;8.10;;;6.30;;
43803;SDS011;29430;52.924;-2.388;2023-04-28T23:04:23;11.18;;;6.85;;
43803;SDS011;29430;52.924;-2.388;2023-04-28T23:09:15;8.32;;;6.20;;
43803;SDS011;29430;52.924;-2.388;2023-04-28T23:14:06;10.50;;;6.93;;
43803;SDS011;29430;52.924;-2.388;2023-04-28T23:18:58;9.20;;;6.85;;
43803;SDS011;29430;52.924;-2.388;2023-04-28T23:23:50;8.60;;;6.55;;
43803;SDS011;29430;52.924;-2.388;2023-04-28T23:28:41;9.27;;;6.70;;
43803;SDS011;29430;52.924;-2.388;2023-04-28T23:33:33;10.07;;;6.35;;
43803;SDS011;29430;52.924;-2.388;2023-04-28T23:38:24;11.45;;;8.27;;
43803;SDS011;29430;52.924;-2.388;2023-04-28T23:43:17;9.70;;;6.70;;
43803;SDS011;29430;52.924;-2.388;2023-04-28T23:48:08;12.65;;;6.35;;
43803;SDS011;29430;52.924;-2.388;2023-04-28T23:53:01;8.63;;;5.53;;
43803;SDS011;29430;52.924;-2.388;2023-04-28T23:57:52;11.75;;;6.53;;
